sensor_id;sensor_type;location;lat;lon;timestamp;pressure;altitude;pressure_sealevel;temperature;humidity
64679;BME280;51094;53.864;27.676;2024-01-15T00:01:00;96695.81;;;0.17;92.02
64679;BME280;51094;53.864;27.676;2024-01-15T00:03:27;96717.38;;;0.25;91.45
64679;BME280;51094;53.864;27.676;2024-01-15T00:05:54;96703.13;;;0.34;91.61
64679;BME280;51094;53.864;27.676;2024-01-15T00:08:21;96596.53;;;-0.37;90.98
64679;BME280;51094;53.864;27.676;2024-01-15T00:10:48;96709.66;;;0.38;90.97
64679;BME280;51094;53.864;27.676;2024-01-15T00:13:14;96642.97;;;-0.07;91.15
64679;BME280;51094;53.864;27.676;2024-01-15T00:15:41;96715.00;;;0.35;91.26
64679;BME280;51094;53.864;27.676;2024-01-15T00:18:08;96711.00;;;0.31;90.86
64679;BME280;51094;53.864;27.676;2024-01-15T00:20:35;96688.97;;;0.17;91.19
64679;BME280;51094;53.864;27.676;2024-01-15T00:23:02;96707.53;;;0.32;91.05
64679;BME280;51094;53.864;27.676;2024-01-15T00:25:29;96692.31;;;0.30;91.76
64679;BME280;51094;53.864;27.676;2024-01-15T00:27:56;96678.00;;;0.28;91.67
64679;BME280;51094;53.864;27.676;2024-01-15T00:30:23;96712.13;;;0.40;90.24
64679;BME280;51094;53.864;27.676;2024-01-15T00:32:50;96705.63;;;0.23;90.37
64679;BME280;51094;53.864;27.676;2024-01-15T00:35:17;96738.53;;;0.27;90.66
64679;BME280;51094;53.864;27.676;2024-01-15T00:37:44;96686.50;;;-0.08;90.41
64679;BME280;51094;53.864;27.676;2024-01-15T00:40:11;96705.63;;;0.23;90.81
64679;BME280;51094;53.864;27.676;2024-01-15T00:42:38;96686.66;;;0.02;90.41
64679;BME280;51094;53.864;27.676;2024-01-15T00:45:05;96706.44;;;0.23;91.21
64679;BME280;51094;53.864;27.676;2024-01-15T00:47:34;96705.41;;;0.26;91.23
64679;BME280;51094;53.864;27.676;2024-01-15T00:50:01;96715.84;;;0.23;90.25
64679;BME280;51094;53.864;27.676;2024-01-15T00:52:28;96715.94;;;0.21;90.08
64679;BME280;51094;53.864;27.676;2024-01-15T00:54:55;96703.97;;;0.22;90.42
64679;BME280;51094;53.864;27.676;2024-01-15T00:57:22;96654.50;;;-0.14;90.57
64679;BME280;51094;53.864;27.676;2024-01-15T00:59:49;96714.41;;;0.19;89.84
64679;BME280;51094;53.864;27.676;2024-01-15T01:02:16;96676.22;;;0.05;90.36
64679;BME280;51094;53.864;27.676;2024-01-15T01:04:43;96715.53;;;0.15;90.43
64679;BME280;51094;53.864;27.676;2024-01-15T01:07:10;96684.09;;;0.02;90.35
64679;BME280;51094;53.864;27.676;2024-01-15T01:09:37;96703.78;;;0.12;90.53
64679;BME280;51094;53.864;27.676;2024-01-15T01:12:04;96713.19;;;0.12;91.00
64679;BME280;51094;53.864;27.676;2024-01-15T01:14:31;96705.34;;;0.02;91.26
64679;BME280;51094;53.864;27.676;2024-01-15T01:16:58;96703.75;;;-0.12;91.46
64679;BME280;51094;53.864;27.676;2024-01-15T01:19:25;96708.16;;;-0.26;92.70
64679;BME280;51094;53.864;27.676;2024-01-15T01:21:52;96706.72;;;-0.30;95.04
64679;BME280;51094;53.864;27.676;2024-01-15T01:24:19;96607.88;;;-0.90;95.69
64679;BME280;51094;53.864;27.676;2024-01-15T01:26:47;96479.75;;;-1.70;95.98
64679;BME280;51094;53.864;27.676;2024-01-15T01:29:13;96685.28;;;-0.41;96.46
64679;BME280;51094;53.864;27.676;2024-01-15T01:31:44;96689.38;;;-0.38;97.03
64679;BME280;51094;53.864;27.676;2024-01-15T01:34:14;96672.97;;;-0.47;96.47
64679;BME280;51094;53.864;27.676;2024-01-15T01:36:42;96703.56;;;-0.21;96.48
64679;BME280;51094;53.864;27.676;2024-01-15T01:39:10;96720.13;;;-0.27;95.74
64679;BME280;51094;53.864;27.676;2024-01-15T01:41:38;96700.41;;;-0.25;95.62
64679;BME280;51094;53.864;27.676;2024-01-15T01:44:05;96705.50;;;-0.25;95.24
64679;BME280;51094;53.864;27.676;2024-01-15T01:46:34;96695.50;;;-0.15;95.34
64679;BME280;51094;53.864;27.676;2024-01-15T01:49:07;96702.34;;;-0.16;93.75
64679;BME280;51094;53.864;27.676;2024-01-15T01:51:36;96565.13;;;-0.99;93.19
64679;BME280;51094;53.864;27.676;2024-01-15T01:54:04;96683.03;;;-0.32;93.07
64679;BME280;51094;53.864;27.676;2024-01-15T01:56:32;96666.41;;;-0.38;93.35
64679;BME280;51094;53.864;27.676;2024-01-15T01:59:00;96665.50;;;-0.62;93.51
64679;BME280;51094;53.864;27.676;2024-01-15T02:01:29;96613.75;;;-0.77;93.11
64679;BME280;51094;53.864;27.676;2024-01-15T02:03:56;96697.13;;;-0.27;94.18
64679;BME280;51094;53.864;27.676;2024-01-15T02:06:23;96617.63;;;-0.72;93.80
64679;BME280;51094;53.864;27.676;2024-01-15T02:08:51;96656.22;;;-0.51;94.30
64679;BME280;51094;53.864;27.676;2024-01-15T02:11:18;96681.09;;;-0.42;94.16
64679;BME280;51094;53.864;27.676;2024-01-15T02:13:46;96602.22;;;-0.83;94.75
64679;BME280;51094;53.864;27.676;2024-01-15T02:16:13;96587.66;;;-0.93;94.41
64679;BME280;51094;53.864;27.676;2024-01-15T02:18:44;96686.91;;;-0.14;94.42
64679;BME280;51094;53.864;27.676;2024-01-15T02:21:11;96704.19;;;-0.18;93.58
64679;BME280;51094;53.864;27.676;2024-01-15T02:23:39;96654.28;;;-0.47;93.20
64679;BME280;51094;53.864;27.676;2024-01-15T02:26:06;96689.38;;;-0.25;92.83
64679;BME280;51094;53.864;27.676;2024-01-15T02:28:34;96635.50;;;-0.59;92.74
64679;BME280;51094;53.864;27.676;2024-01-15T02:31:02;96673.63;;;-0.19;93.40
64679;BME280;51094;53.864;27.676;2024-01-15T02:33:29;96643.03;;;-0.45;92.31
64679;BME280;51094;53.864;27.676;2024-01-15T02:35:56;96583.06;;;-0.88;92.27
64679;BME280;51094;53.864;27.676;2024-01-15T02:38:22;96587.13;;;-0.73;92.02
64679;BME280;51094;53.864;27.676;2024-01-15T02:40:49;96673.31;;;-0.15;92.26
64679;BME280;51094;53.864;27.676;2024-01-15T02:43:16;96680.97;;;-0.15;92.15
64679;BME280;51094;53.864;27.676;2024-01-15T02:45:45;96544.09;;;-1.03;92.09
64679;BME280;51094;53.864;27.676;2024-01-15T02:48:13;96566.72;;;-0.86;93.07
64679;BME280;51094;53.864;27.676;2024-01-15T02:50:41;96667.41;;;-0.28;92.95
64679;BME280;51094;53.864;27.676;2024-01-15T02:53:08;96540.84;;;-1.05;93.39
64679;BME280;51094;53.864;27.676;2024-01-15T02:55:35;96667.00;;;-0.35;93.26
64679;BME280;51094;53.864;27.676;2024-01-15T02:58:03;96672.63;;;-0.42;94.18
64679;BME280;51094;53.864;27.676;2024-01-15T03:00:30;96667.75;;;-0.45;94.30
64679;BME280;51094;53.864;27.676;2024-01-15T03:02:57;96657.53;;;-0.58;94.53
64679;BME280;51094;53.864;27.676;2024-01-15T03:05:24;96662.16;;;-0.50;94.77
64679;BME280;51094;53.864;27.676;2024-01-15T03:07:51;96601.94;;;-0.91;94.85
64679;BME280;51094;53.864;27.676;2024-01-15T03:10:18;96650.50;;;-0.54;95.26
64679;BME280;51094;53.864;27.676;2024-01-15T03:12:44;96631.81;;;-0.68;95.34
64679;BME280;51094;53.864;27.676;2024-01-15T03:15:11;96645.81;;;-0.60;95.03
64679;BME280;51094;53.864;27.676;2024-01-15T03:17:39;96617.13;;;-0.77;95.67
64679;BME280;51094;53.864;27.676;2024-01-15T03:20:08;96673.47;;;-0.54;95.39
64679;BME280;51094;53.864;27.676;2024-01-15T03:22:35;96660.19;;;-0.59;95.56
64679;BME280;51094;53.864;27.676;2024-01-15T03:25:03;96608.34;;;-0.85;96.34
64679;BME280;51094;53.864;27.676;2024-01-15T03:27:30;96648.47;;;-0.62;95.82
64679;BME280;51094;53.864;27.676;2024-01-15T03:29:57;96606.03;;;-0.88;95.66
64679;BME280;51094;53.864;27.676;2024-01-15T03:32:24;96641.00;;;-0.65;94.87
64679;BME280;51094;53.864;27.676;2024-01-15T03:34:51;96648.16;;;-0.57;95.46
64679;BME280;51094;53.864;27.676;2024-01-15T03:37:19;96449.50;;;-1.87;94.10
64679;BME280;51094;53.864;27.676;2024-01-15T03:39:46;96570.41;;;-1.03;94.79
64679;BME280;51094;53.864;27.676;2024-01-15T03:42:13;96624.56;;;-0.74;95.08
64679;BME280;51094;53.864;27.676;2024-01-15T03:44:41;96640.19;;;-0.53;95.78
64679;BME280;51094;53.864;27.676;2024-01-15T03:47:08;96659.78;;;-0.53;94.84
64679;BME280;51094;53.864;27.676;2024-01-15T03:49:35;96582.88;;;-0.98;94.15
64679;BME280;51094;53.864;27.676;2024-01-15T03:52:02;96618.16;;;-0.79;93.39
64679;BME280;51094;53.864;27.676;2024-01-15T03:54:29;96579.00;;;-1.04;93.54
64679;BME280;51094;53.864;27.676;2024-01-15T03:56:56;96611.31;;;-0.79;93.72
64679;BME280;51094;53.864;27.676;2024-01-15T03:59:22;96639.69;;;-0.58;93.72
64679;BME280;51094;53.864;27.676;2024-01-15T04:01:50;96657.34;;;-0.68;92.69
64679;BME280;51094;53.864;27.676;2024-01-15T04:04:17;96643.34;;;-0.75;93.03
64679;BME280;51094;53.864;27.676;2024-01-15T04:06:45;96642.66;;;-0.77;93.88
64679;BME280;51094;53.864;27.676;2024-01-15T04:09:17;96444.59;;;-1.90;94.51
64679;BME280;51094;53.864;27.676;2024-01-15T04:11:44;96619.16;;;-0.82;95.03
64679;BME280;51094;53.864;27.676;2024-01-15T04:14:11;96620.69;;;-0.79;94.91
64679;BME280;51094;53.864;27.676;2024-01-15T04:16:38;96639.78;;;-0.59;94.16
64679;BME280;51094;53.864;27.676;2024-01-15T04:19:05;96610.22;;;-0.87;93.90
64679;BME280;51094;53.864;27.676;2024-01-15T04:21:33;96604.66;;;-0.81;93.71
64679;BME280;51094;53.864;27.676;2024-01-15T04:24:00;96624.06;;;-0.66;93.84
64679;BME280;51094;53.864;27.676;2024-01-15T04:26:27;96602.22;;;-0.83;93.17
64679;BME280;51094;53.864;27.676;2024-01-15T04:28:59;96628.75;;;-0.60;93.46
64679;BME280;51094;53.864;27.676;2024-01-15T04:31:26;96623.16;;;-0.65;92.74
64679;BME280;51094;53.864;27.676;2024-01-15T04:33:56;96513.72;;;-1.31;92.53
64679;BME280;51094;53.864;27.676;2024-01-15T04:36:23;96599.16;;;-0.62;91.98
64679;BME280;51094;53.864;27.676;2024-01-15T04:38:50;96616.31;;;-0.64;91.26
64679;BME280;51094;53.864;27.676;2024-01-15T04:41:17;96622.03;;;-0.61;90.55
64679;BME280;51094;53.864;27.676;2024-01-15T04:43:44;96593.03;;;-0.85;90.48
64679;BME280;51094;53.864;27.676;2024-01-15T04:46:11;96581.69;;;-0.69;90.69
64679;BME280;51094;53.864;27.676;2024-01-15T04:48:38;96456.13;;;-1.47;89.73
64679;BME280;51094;53.864;27.676;2024-01-15T04:51:05;96591.41;;;-0.74;89.76
64679;BME280;51094;53.864;27.676;2024-01-15T04:53:34;96603.75;;;-0.55;89.81
64679;BME280;51094;53.864;27.676;2024-01-15T04:56:01;96555.88;;;-0.77;90.27
64679;BME280;51094;53.864;27.676;2024-01-15T04:58:28;96578.03;;;-0.64;89.91
64679;BME280;51094;53.864;27.676;2024-01-15T05:00:56;96582.53;;;-0.68;89.47
64679;BME280;51094;53.864;27.676;2024-01-15T05:03:23;96511.16;;;-1.06;89.60
64679;BME280;51094;53.864;27.676;2024-01-15T05:05:50;96583.22;;;-0.53;90.54
64679;BME280;51094;53.864;27.676;2024-01-15T05:08:17;96574.56;;;-0.63;90.24
64679;BME280;51094;53.864;27.676;2024-01-15T05:10:44;96565.25;;;-0.64;90.67
64679;BME280;51094;53.864;27.676;2024-01-15T05:13:11;96542.41;;;-0.79;90.28
64679;BME280;51094;53.864;27.676;2024-01-15T05:15:39;96566.69;;;-0.73;90.28
64679;BME280;51094;53.864;27.676;2024-01-15T05:18:06;96611.41;;;-0.55;90.54
64679;BME280;51094;53.864;27.676;2024-01-15T05:20:33;96607.94;;;-0.54;90.70
64679;BME280;51094;53.864;27.676;2024-01-15T05:23:03;96559.19;;;-0.87;91.20
64679;BME280;51094;53.864;27.676;2024-01-15T05:25:30;96563.22;;;-0.72;91.36
64679;BME280;51094;53.864;27.676;2024-01-15T05:27:57;96587.09;;;-0.60;92.04
64679;BME280;51094;53.864;27.676;2024-01-15T05:30:24;96593.22;;;-0.50;91.96
64679;BME280;51094;53.864;27.676;2024-01-15T05:32:51;96580.53;;;-0.88;92.00
64679;BME280;51094;53.864;27.676;2024-01-15T05:35:18;96595.78;;;-0.50;92.65
64679;BME280;51094;53.864;27.676;2024-01-15T05:37:45;96591.47;;;-0.50;92.47
64679;BME280;51094;53.864;27.676;2024-01-15T05:40:13;96589.66;;;-0.60;92.25
64679;BME280;51094;53.864;27.676;2024-01-15T05:42:41;96576.69;;;-0.57;92.64
64679;BME280;51094;53.864;27.676;2024-01-15T05:45:08;96601.91;;;-0.53;92.61
64679;BME280;51094;53.864;27.676;2024-01-15T05:47:36;96571.00;;;-0.74;92.47
64679;BME280;51094;53.864;27.676;2024-01-15T05:50:04;96591.00;;;-0.68;93.43
64679;BME280;51094;53.864;27.676;2024-01-15T05:52:31;96483.63;;;-1.26;93.90
64679;BME280;51094;53.864;27.676;2024-01-15T05:54:58;96572.91;;;-0.64;94.15
64679;BME280;51094;53.864;27.676;2024-01-15T05:57:25;96587.91;;;-0.60;94.24
64679;BME280;51094;53.864;27.676;2024-01-15T05:59:52;96461.63;;;-1.40;94.42
64679;BME280;51094;53.864;27.676;2024-01-15T06:02:20;96557.72;;;-0.79;94.58
64679;BME280;51094;53.864;27.676;2024-01-15T06:04:46;96589.16;;;-0.65;94.91
64679;BME280;51094;53.864;27.676;2024-01-15T06:07:14;96587.84;;;-0.71;94.59
64679;BME280;51094;53.864;27.676;2024-01-15T06:09:41;96584.88;;;-0.78;95.50
64679;BME280;51094;53.864;27.676;2024-01-15T06:12:08;96604.97;;;-0.73;95.94
64679;BME280;51094;53.864;27.676;2024-01-15T06:14:35;96590.91;;;-0.79;97.10
64679;BME280;51094;53.864;27.676;2024-01-15T06:17:02;96592.84;;;-0.70;96.53
64679;BME280;51094;53.864;27.676;2024-01-15T06:19:29;96589.34;;;-0.69;96.41
64679;BME280;51094;53.864;27.676;2024-01-15T06:21:56;96567.16;;;-0.92;96.91
64679;BME280;51094;53.864;27.676;2024-01-15T06:24:23;96552.56;;;-0.90;96.81
64679;BME280;51094;53.864;27.676;2024-01-15T06:26:50;96540.63;;;-1.02;96.62
64679;BME280;51094;53.864;27.676;2024-01-15T06:29:18;96581.00;;;-0.71;97.43
64679;BME280;51094;53.864;27.676;2024-01-15T06:31:45;96573.66;;;-0.75;97.61
64679;BME280;51094;53.864;27.676;2024-01-15T06:34:12;96562.44;;;-0.85;97.22
64679;BME280;51094;53.864;27.676;2024-01-15T06:36:39;96526.44;;;-1.06;97.39
64679;BME280;51094;53.864;27.676;2024-01-15T06:39:07;96562.72;;;-0.77;97.50
64679;BME280;51094;53.864;27.676;2024-01-15T06:41:34;96578.94;;;-0.65;97.18
64679;BME280;51094;53.864;27.676;2024-01-15T06:44:01;96563.34;;;-0.74;97.36
64679;BME280;51094;53.864;27.676;2024-01-15T06:46:28;96515.13;;;-1.15;97.27
64679;BME280;51094;53.864;27.676;2024-01-15T06:48:55;96556.69;;;-0.76;97.82
64679;BME280;51094;53.864;27.676;2024-01-15T06:51:22;96574.56;;;-0.63;97.68
64679;BME280;51094;53.864;27.676;2024-01-15T06:53:49;96557.00;;;-0.68;97.37
64679;BME280;51094;53.864;27.676;2024-01-15T06:56:16;96553.13;;;-0.74;97.04
64679;BME280;51094;53.864;27.676;2024-01-15T06:58:43;96581.59;;;-0.67;96.87
64679;BME280;51094;53.864;27.676;2024-01-15T07:01:10;96488.81;;;-1.15;98.03
64679;BME280;51094;53.864;27.676;2024-01-15T07:03:37;96563.44;;;-0.62;98.70
64679;BME280;51094;53.864;27.676;2024-01-15T07:06:05;96569.84;;;-0.57;98.69
64679;BME280;51094;53.864;27.676;2024-01-15T07:08:32;96457.94;;;-1.36;97.98
64679;BME280;51094;53.864;27.676;2024-01-15T07:10:59;96560.69;;;-0.72;98.04
64679;BME280;51094;53.864;27.676;2024-01-15T07:13:25;96556.91;;;-0.67;97.90
64679;BME280;51094;53.864;27.676;2024-01-15T07:15:52;96583.84;;;-0.62;97.78
64679;BME280;51094;53.864;27.676;2024-01-15T07:18:19;96549.34;;;-0.81;98.69
64679;BME280;51094;53.864;27.676;2024-01-15T07:20:46;96568.03;;;-0.68;97.67
64679;BME280;51094;53.864;27.676;2024-01-15T07:23:14;96567.22;;;-0.68;98.13
64679;BME280;51094;53.864;27.676;2024-01-15T07:25:41;96549.03;;;-0.76;97.92
64679;BME280;51094;53.864;27.676;2024-01-15T07:28:09;96528.88;;;-0.92;98.23
64679;BME280;51094;53.864;27.676;2024-01-15T07:30:38;96552.81;;;-0.82;97.88
64679;BME280;51094;53.864;27.676;2024-01-15T07:33:06;96575.78;;;-0.56;99.17
64679;BME280;51094;53.864;27.676;2024-01-15T07:35:32;96551.28;;;-0.59;99.62
64679;BME280;51094;53.864;27.676;2024-01-15T07:37:59;96526.84;;;-0.87;98.82
64679;BME280;51094;53.864;27.676;2024-01-15T07:40:26;96572.59;;;-0.60;98.27
64679;BME280;51094;53.864;27.676;2024-01-15T07:42:53;96576.19;;;-0.62;98.87
64679;BME280;51094;53.864;27.676;2024-01-15T07:45:21;96573.22;;;-0.56;99.86
64679;BME280;51094;53.864;27.676;2024-01-15T07:47:48;96494.81;;;-1.04;99.17
64679;BME280;51094;53.864;27.676;2024-01-15T07:50:16;96570.34;;;-0.52;99.78
64679;BME280;51094;53.864;27.676;2024-01-15T07:52:43;96560.56;;;-0.58;99.17
64679;BME280;51094;53.864;27.676;2024-01-15T07:55:09;96535.78;;;-0.69;99.63
64679;BME280;51094;53.864;27.676;2024-01-15T07:57:37;96561.91;;;-0.65;99.79
64679;BME280;51094;53.864;27.676;2024-01-15T08:00:04;96572.59;;;-0.60;100.00
64679;BME280;51094;53.864;27.676;2024-01-15T08:02:32;96555.88;;;-0.64;100.00
64679;BME280;51094;53.864;27.676;2024-01-15T08:05:03;96554.44;;;-0.68;100.00
64679;BME280;51094;53.864;27.676;2024-01-15T08:07:30;96521.84;;;-0.88;100.00
64679;BME280;51094;53.864;27.676;2024-01-15T08:09:57;96522.00;;;-0.79;100.00
64679;BME280;51094;53.864;27.676;2024-01-15T08:12:25;96544.31;;;-0.57;100.00
64679;BME280;51094;53.864;27.676;2024-01-15T08:14:52;96485.72;;;-0.95;100.00
64679;BME280;51094;53.864;27.676;2024-01-15T08:17:19;96499.75;;;-0.77;100.00
64679;BME280;51094;53.864;27.676;2024-01-15T08:19:46;96510.78;;;-0.76;100.00
64679;BME280;51094;53.864;27.676;2024-01-15T08:22:13;96536.34;;;-0.52;100.00
64679;BME280;51094;53.864;27.676;2024-01-15T08:24:41;96497.69;;;-0.72;100.00
64679;BME280;51094;53.864;27.676;2024-01-15T08:27:08;96517.00;;;-0.68;100.00
64679;BME280;51094;53.864;27.676;2024-01-15T08:29:35;96479.75;;;-0.83;100.00
64679;BME280;51094;53.864;27.676;2024-01-15T08:32:02;96529.50;;;-0.52;100.00
64679;BME280;51094;53.864;27.676;2024-01-15T08:34:29;96533.81;;;-0.52;99.82
64679;BME280;51094;53.864;27.676;2024-01-15T08:36:57;96486.16;;;-0.64;100.00
64679;BME280;51094;53.864;27.676;2024-01-15T08:39:27;96525.03;;;-0.37;100.00
64679;BME280;51094;53.864;27.676;2024-01-15T08:41:54;96515.53;;;-0.35;100.00
64679;BME280;51094;53.864;27.676;2024-01-15T08:44:21;96508.22;;;-0.40;99.62
64679;BME280;51094;53.864;27.676;2024-01-15T08:46:48;96522.28;;;-0.34;100.00
64679;BME280;51094;53.864;27.676;2024-01-15T08:49:15;96516.03;;;-0.30;100.00
64679;BME280;51094;53.864;27.676;2024-01-15T08:51:42;96398.50;;;-1.00;100.00
64679;BME280;51094;53.864;27.676;2024-01-15T08:54:09;96508.38;;;-0.30;100.00
64679;BME280;51094;53.864;27.676;2024-01-15T08:56:36;96486.41;;;-0.44;99.65
64679;BME280;51094;53.864;27.676;2024-01-15T08:59:03;96505.22;;;-0.34;99.91
64679;BME280;51094;53.864;27.676;2024-01-15T09:01:30;96489.63;;;-0.42;99.59
64679;BME280;51094;53.864;27.676;2024-01-15T09:03:57;96500.66;;;-0.41;99.55
64679;BME280;51094;53.864;27.676;2024-01-15T09:06:25;96399.72;;;-0.93;99.91
64679;BME280;51094;53.864;27.676;2024-01-15T09:08:52;96472.47;;;-0.40;99.71
64679;BME280;51094;53.864;27.676;2024-01-15T09:11:19;96490.50;;;-0.30;99.53
64679;BME280;51094;53.864;27.676;2024-01-15T09:13:46;96454.38;;;-0.60;99.86
64679;BME280;51094;53.864;27.676;2024-01-15T09:16:15;96449.72;;;-0.67;100.00
64679;BME280;51094;53.864;27.676;2024-01-15T09:18:42;96424.44;;;-0.82;99.56
64679;BME280;51094;53.864;27.676;2024-01-15T09:21:09;96485.91;;;-0.49;99.94
64679;BME280;51094;53.864;27.676;2024-01-15T09:23:37;96489.06;;;-0.45;100.00
64679;BME280;51094;53.864;27.676;2024-01-15T09:26:04;96474.16;;;-0.51;100.00
64679;BME280;51094;53.864;27.676;2024-01-15T09:28:31;96482.53;;;-0.49;100.00
64679;BME280;51094;53.864;27.676;2024-01-15T09:30:58;96487.16;;;-0.54;100.00
64679;BME280;51094;53.864;27.676;2024-01-15T09:33:25;96467.16;;;-0.60;100.00
64679;BME280;51094;53.864;27.676;2024-01-15T09:35:53;96483.19;;;-0.58;100.00
64679;BME280;51094;53.864;27.676;2024-01-15T09:38:20;96466.66;;;-0.65;100.00
64679;BME280;51094;53.864;27.676;2024-01-15T09:40:47;96441.59;;;-0.84;100.00
64679;BME280;51094;53.864;27.676;2024-01-15T09:43:14;96457.25;;;-0.65;100.00
64679;BME280;51094;53.864;27.676;2024-01-15T09:45:42;96474.50;;;-0.56;100.00
64679;BME280;51094;53.864;27.676;2024-01-15T09:48:10;96463.25;;;-0.53;100.00
64679;BME280;51094;53.864;27.676;2024-01-15T09:50:38;96470.63;;;-0.61;100.00
64679;BME280;51094;53.864;27.676;2024-01-15T09:53:05;96422.00;;;-0.84;100.00
64679;BME280;51094;53.864;27.676;2024-01-15T09:55:32;96443.41;;;-0.74;100.00
64679;BME280;51094;53.864;27.676;2024-01-15T09:58:00;96455.81;;;-0.56;100.00
64679;BME280;51094;53.864;27.676;2024-01-15T10:00:29;96461.03;;;-0.58;100.00
64679;BME280;51094;53.864;27.676;2024-01-15T10:02:58;96447.50;;;-0.47;100.00
64679;BME280;51094;53.864;27.676;2024-01-15T10:05:27;96291.28;;;-1.46;99.98
64679;BME280;51094;53.864;27.676;2024-01-15T10:07:54;96405.41;;;-0.65;100.00
64679;BME280;51094;53.864;27.676;2024-01-15T10:10:23;96452.53;;;-0.35;99.61
64679;BME280;51094;53.864;27.676;2024-01-15T10:12:50;96438.56;;;-0.42;99.72
64679;BME280;51094;53.864;27.676;2024-01-15T10:15:17;96446.16;;;-0.29;99.06
64679;BME280;51094;53.864;27.676;2024-01-15T10:17:45;96449.97;;;-0.35;98.01
64679;BME280;51094;53.864;27.676;2024-01-15T10:20:12;96416.38;;;-0.52;98.79
64679;BME280;51094;53.864;27.676;2024-01-15T10:22:42;96409.88;;;-0.56;98.06
64679;BME280;51094;53.864;27.676;2024-01-15T10:25:11;96394.50;;;-0.68;97.85
64679;BME280;51094;53.864;27.676;2024-01-15T10:27:38;96449.97;;;-0.35;97.53
64679;BME280;51094;53.864;27.676;2024-01-15T10:30:05;96424.63;;;-0.49;97.60
64679;BME280;51094;53.864;27.676;2024-01-15T10:32:33;96440.78;;;-0.37;96.99
64679;BME280;51094;53.864;27.676;2024-01-15T10:35:00;96454.47;;;-0.38;98.04
64679;BME280;51094;53.864;27.676;2024-01-15T10:37:27;96421.28;;;-0.49;97.17
64679;BME280;51094;53.864;27.676;2024-01-15T10:39:55;96425.97;;;-0.32;98.46
64679;BME280;51094;53.864;27.676;2024-01-15T10:42:22;96435.25;;;-0.31;98.15
64679;BME280;51094;53.864;27.676;2024-01-15T10:44:49;96384.19;;;-0.66;98.52
64679;BME280;51094;53.864;27.676;2024-01-15T10:47:16;96368.16;;;-0.68;98.91
64679;BME280;51094;53.864;27.676;2024-01-15T10:49:45;96387.59;;;-0.54;99.28
64679;BME280;51094;53.864;27.676;2024-01-15T10:52:12;96414.91;;;-0.44;98.43
64679;BME280;51094;53.864;27.676;2024-01-15T10:54:41;96329.66;;;-1.00;98.60
64679;BME280;51094;53.864;27.676;2024-01-15T10:57:10;96423.41;;;-0.32;99.41
64679;BME280;51094;53.864;27.676;2024-01-15T10:59:37;96329.94;;;-0.81;98.87
64679;BME280;51094;53.864;27.676;2024-01-15T11:02:04;96398.72;;;-0.20;100.00
64679;BME280;51094;53.864;27.676;2024-01-15T11:04:32;96370.28;;;-0.27;99.35
64679;BME280;51094;53.864;27.676;2024-01-15T11:07:00;96408.31;;;0.00;98.97
64679;BME280;51094;53.864;27.676;2024-01-15T11:09:29;96386.59;;;-0.06;98.50
64679;BME280;51094;53.864;27.676;2024-01-15T11:12:12;96403.31;;;-0.02;98.67
64679;BME280;51094;53.864;27.676;2024-01-15T11:14:41;96377.19;;;-0.40;97.80
64679;BME280;51094;53.864;27.676;2024-01-15T11:17:12;96403.34;;;-0.25;98.26
64679;BME280;51094;53.864;27.676;2024-01-15T11:19:45;96409.50;;;-0.28;98.64
64679;BME280;51094;53.864;27.676;2024-01-15T11:25:13;96391.84;;;-0.31;99.41
64679;BME280;51094;53.864;27.676;2024-01-15T11:27:45;96345.78;;;-0.64;98.91
64679;BME280;51094;53.864;27.676;2024-01-15T11:30:14;96383.31;;;-0.54;99.78
64679;BME280;51094;53.864;27.676;2024-01-15T11:32:41;96351.81;;;-0.65;99.80
64679;BME280;51094;53.864;27.676;2024-01-15T11:35:10;96391.81;;;-0.42;99.95
64679;BME280;51094;53.864;27.676;2024-01-15T11:40:44;96378.47;;;-0.46;99.98
64679;BME280;51094;53.864;27.676;2024-01-15T11:43:12;96349.38;;;-0.67;99.90
64679;BME280;51094;53.864;27.676;2024-01-15T11:45:40;96324.50;;;-0.87;99.37
64679;BME280;51094;53.864;27.676;2024-01-15T11:50:44;96341.06;;;-0.93;99.13
64679;BME280;51094;53.864;27.676;2024-01-15T11:55:51;96374.50;;;-0.50;99.10
64679;BME280;51094;53.864;27.676;2024-01-15T11:58:18;96265.25;;;-1.15;98.99
64679;BME280;51094;53.864;27.676;2024-01-15T12:00:48;96392.00;;;-0.56;99.13
64679;BME280;51094;53.864;27.676;2024-01-15T12:03:17;96350.31;;;-0.68;99.41
64679;BME280;51094;53.864;27.676;2024-01-15T12:05:45;96352.91;;;-0.57;99.06
64679;BME280;51094;53.864;27.676;2024-01-15T12:08:14;96354.63;;;-0.57;99.61
64679;BME280;51094;53.864;27.676;2024-01-15T12:10:41;96359.63;;;-0.56;100.00
64679;BME280;51094;53.864;27.676;2024-01-15T12:13:15;96334.84;;;-0.78;99.98
64679;BME280;51094;53.864;27.676;2024-01-15T12:15:45;96294.75;;;-0.99;100.00
64679;BME280;51094;53.864;27.676;2024-01-15T12:18:14;96304.44;;;-0.81;100.00
64679;BME280;51094;53.864;27.676;2024-01-15T12:20:43;96329.22;;;-0.59;100.00
64679;BME280;51094;53.864;27.676;2024-01-15T12:23:10;96347.44;;;-0.63;100.00
64679;BME280;51094;53.864;27.676;2024-01-15T12:25:38;96335.38;;;-0.61;100.00
64679;BME280;51094;53.864;27.676;2024-01-15T12:28:05;96328.53;;;-0.61;100.00
64679;BME280;51094;53.864;27.676;2024-01-15T12:30:34;96320.72;;;-0.71;100.00
64679;BME280;51094;53.864;27.676;2024-01-15T12:33:06;96340.47;;;-0.61;100.00
64679;BME280;51094;53.864;27.676;2024-01-15T12:35:36;96326.41;;;-0.67;100.00
64679;BME280;51094;53.864;27.676;2024-01-15T12:38:03;96337.16;;;-0.75;100.00
64679;BME280;51094;53.864;27.676;2024-01-15T12:40:32;96336.91;;;-0.83;100.00
64679;BME280;51094;53.864;27.676;2024-01-15T12:43:02;96336.53;;;-0.89;100.00
64679;BME280;51094;53.864;27.676;2024-01-15T12:45:30;96334.81;;;-0.89;100.00
64679;BME280;51094;53.864;27.676;2024-01-15T12:47:58;96274.84;;;-1.18;100.00
64679;BME280;51094;53.864;27.676;2024-01-15T12:50:25;96255.56;;;-1.33;100.00
64679;BME280;51094;53.864;27.676;2024-01-15T12:52:53;96339.56;;;-0.84;100.00
64679;BME280;51094;53.864;27.676;2024-01-15T12:55:20;96334.09;;;-0.91;100.00
64679;BME280;51094;53.864;27.676;2024-01-15T12:57:46;96248.50;;;-1.30;100.00
64679;BME280;51094;53.864;27.676;2024-01-15T13:00:14;96266.50;;;-1.20;100.00